Time;durP1;ratioP1;P1;durP2;ratioP2;P2;SDS_P1;SDS_P2;PMS_P1;PMS_P2;Temp;Humidity;BMP_temperature;BMP_pressure;BME280_temperature;BME280_humidity;BME280_pressure;Samples;Min_cycle;Max_cycle;Signal;HPM_P1;HPM_P2
2022/11/12 00:00:36;;;;;;;11.95;7.80;;;7.50;99.90;;;;;;5015080;28;20038;-67
2022/11/12 00:03:01;;;;;;;12.23;7.75;;;7.40;99.90;;;;;;5015041;28;20057;-66
2022/11/12 00:05:27;;;;;;;11.38;7.45;;;7.40;99.90;;;;;;5014298;28;20406;-67
2022/11/12 00:07:53;;;;;;;13.07;7.80;;;7.40;99.90;;;;;;5014095;28;20038;-66
2022/11/12 00:10:18;;;;;;;11.80;7.03;;;7.40;99.90;;;;;;4998946;28;20103;-66
2022/11/12 00:12:44;;;;;;;13.85;7.78;;;7.40;99.90;;;;;;5015280;28;20046;-66
2022/11/12 00:15:10;;;;;;;10.98;6.90;;;7.40;99.90;;;;;;5014162;28;20056;-66
2022/11/12 00:17:35;;;;;;;10.40;6.68;;;7.40;99.90;;;;;;4998488;28;20088;-66
2022/11/12 00:20:01;;;;;;;10.57;6.70;;;7.40;99.90;;;;;;5013153;28;20477;-66
2022/11/12 00:22:27;;;;;;;11.07;6.57;;;7.40;99.90;;;;;;4994235;28;20038;-66
2022/11/12 00:24:52;;;;;;;11.75;6.35;;;7.30;99.90;;;;;;5011501;28;20486;-66
2022/11/12 00:27:18;;;;;;;10.50;5.75;;;7.30;99.90;;;;;;5014081;28;20462;-66
2022/11/12 00:29:44;;;;;;;11.75;6.63;;;7.30;99.90;;;;;;5014882;28;20120;-66
2022/11/12 00:32:10;;;;;;;10.40;5.93;;;7.30;99.90;;;;;;4998292;28;20034;-66
2022/11/12 00:34:36;;;;;;;10.63;6.07;;;7.40;99.90;;;;;;5013866;28;20041;-66
2022/11/12 00:37:02;;;;;;;8.82;5.25;;;7.40;99.90;;;;;;5012859;28;20053;-66
2022/11/12 00:39:28;;;;;;;10.00;6.03;;;7.40;99.90;;;;;;5013594;28;20038;-66
2022/11/12 00:41:54;;;;;;;10.95;6.03;;;7.20;99.90;;;;;;4998096;28;20034;-66
2022/11/12 00:44:20;;;;;;;11.35;6.05;;;7.10;99.90;;;;;;5014265;28;20072;-66
2022/11/12 00:46:46;;;;;;;10.30;5.70;;;7.20;99.90;;;;;;5014313;28;20109;-66
2022/11/12 00:49:11;;;;;;;7.32;4.10;;;7.30;99.90;;;;;;5012771;28;20096;-66
2022/11/12 00:51:37;;;;;;;9.68;4.80;;;7.30;99.90;;;;;;5010254;28;20041;-66
2022/11/12 00:54:03;;;;;;;9.23;5.50;;;7.20;99.90;;;;;;5013160;28;20072;-66
2022/11/12 00:56:28;;;;;;;9.35;5.68;;;7.20;99.90;;;;;;5013313;28;20045;-66
2022/11/12 00:58:54;;;;;;;10.52;5.55;;;7.20;99.90;;;;;;4996521;28;20041;-66
2022/11/12 01:01:20;;;;;;;8.50;4.97;;;7.20;99.90;;;;;;5003435;28;20030;-66
2022/11/12 01:03:46;;;;;;;8.80;4.82;;;7.30;99.90;;;;;;4997546;28;20129;-66
2022/11/12 01:06:15;;;;;;;7.30;4.10;;;7.20;99.90;;;;;;5014257;28;20120;-66
2022/11/12 01:08:41;;;;;;;7.22;4.78;;;7.10;99.90;;;;;;5003081;28;20041;-66
2022/11/12 01:11:20;;;;;;;8.40;5.32;;;7.10;99.90;;;;;;5013832;28;20049;-66
2022/11/12 01:13:51;;;;;;;8.50;5.13;;;7.10;99.90;;;;;;4997801;28;20509;-66
2022/11/12 01:16:20;;;;;;;9.03;4.97;;;7.00;99.90;;;;;;5013823;28;20048;-66
2022/11/12 01:18:50;;;;;;;8.50;5.28;;;6.90;99.90;;;;;;5012800;28;20050;-66
2022/11/12 01:21:16;;;;;;;10.27;6.15;;;6.90;99.90;;;;;;5013210;28;20030;-66
2022/11/12 01:23:42;;;;;;;9.70;6.05;;;7.00;99.90;;;;;;4996621;28;20042;-66
2022/11/12 01:26:11;;;;;;;9.90;5.43;;;7.10;99.90;;;;;;5013898;28;20125;-66
2022/11/12 01:28:36;;;;;;;8.57;5.43;;;7.10;99.90;;;;;;4996574;28;20092;-66
2022/11/12 01:31:20;;;;;;;9.05;5.53;;;7.00;99.90;;;;;;5013717;28;20449;-66
2022/11/12 01:33:48;;;;;;;10.70;6.03;;;7.00;99.90;;;;;;4997111;28;20046;-66
2022/11/12 01:36:15;;;;;;;11.93;6.18;;;7.00;99.90;;;;;;4997308;28;20438;-66
2022/11/12 01:38:42;;;;;;;11.45;7.25;;;7.00;99.90;;;;;;4996447;28;20038;-66
2022/11/12 01:41:14;;;;;;;10.27;5.90;;;7.10;99.90;;;;;;5013236;28;20052;-66
2022/11/12 01:43:40;;;;;;;;;;;7.00;99.90;;;;;;5013022;28;20052;-66
2022/11/12 01:46:20;;;;;;;10.35;6.50;;;7.00;99.90;;;;;;4996527;28;19917;-66
2022/11/12 01:48:52;;;;;;;14.00;7.07;;;6.90;99.90;;;;;;5013222;28;20092;-66
2022/11/12 01:51:20;;;;;;;10.33;6.13;;;6.90;99.90;;;;;;5013162;28;20124;-66
2022/11/12 01:53:51;;;;;;;10.23;6.32;;;6.80;99.90;;;;;;5012540;28;20038;-66
2022/11/12 01:56:18;;;;;;;9.57;5.78;;;6.80;99.90;;;;;;5013191;28;20046;-66
2022/11/12 01:58:48;;;;;;;9.45;6.10;;;6.80;99.90;;;;;;5012005;28;20498;-66
2022/11/12 02:01:13;;;;;;;11.50;6.57;;;6.80;99.90;;;;;;5012849;28;20521;-66
2022/11/12 02:03:39;;;;;;;11.77;6.90;;;6.80;99.90;;;;;;5012055;28;20054;-66
2022/11/12 02:06:08;;;;;;;9.82;6.47;;;6.80;99.90;;;;;;5012866;28;20077;-66
2022/11/12 02:08:36;;;;;;;10.95;6.57;;;6.80;99.90;;;;;;5012388;28;20095;-66
2022/11/12 02:11:16;;;;;;;10.52;6.80;;;6.80;99.90;;;;;;5008721;28;20084;-66
2022/11/12 02:13:56;;;;;;;11.52;7.65;;;6.80;99.90;;;;;;5011662;28;20042;-66
2022/11/12 02:16:34;;;;;;;10.98;7.30;;;6.80;99.90;;;;;;5012835;28;20041;-66
2022/11/12 02:19:00;;;;;;;11.00;7.47;;;6.70;99.90;;;;;;4995851;28;20084;-66
2022/11/12 02:21:27;;;;;;;10.98;7.25;;;6.60;99.90;;;;;;4995684;28;20398;-66
2022/11/12 02:24:12;;;;;;;10.93;7.30;;;6.60;99.90;;;;;;4995679;28;20038;-67
2022/11/12 02:26:42;;;;;;;10.98;7.15;;;6.60;99.90;;;;;;5011750;28;20038;-66
2022/11/12 02:29:08;;;;;;;13.10;8.40;;;6.70;99.90;;;;;;4996537;28;20092;-67
2022/11/12 02:31:35;;;;;;;11.35;6.40;;;6.70;99.90;;;;;;4995591;28;20437;-66
2022/11/12 02:34:00;;;;;;;9.20;6.40;;;6.70;99.90;;;;;;4996091;28;20045;-67
2022/11/12 02:36:26;;;;;;;11.25;6.95;;;6.70;99.90;;;;;;5010704;28;20093;-66
2022/11/12 02:38:52;;;;;;;12.45;7.68;;;6.70;99.90;;;;;;5008067;28;20034;-66
2022/11/12 02:41:18;;;;;;;9.90;7.30;;;6.70;99.90;;;;;;5012433;28;20375;-67
2022/11/12 02:43:44;;;;;;;12.52;7.57;;;6.70;99.90;;;;;;4995380;28;20072;-67
2022/11/12 02:46:09;;;;;;;10.15;7.28;;;6.70;99.90;;;;;;4995086;28;20548;-66
2022/11/12 02:48:35;;;;;;;11.93;8.13;;;6.60;99.90;;;;;;5011801;28;20072;-66
2022/11/12 02:51:00;;;;;;;10.88;7.25;;;6.60;99.90;;;;;;5012272;28;20045;-66
2022/11/12 02:53:26;;;;;;;10.77;7.03;;;6.60;99.90;;;;;;4995041;28;20132;-66
2022/11/12 02:55:52;;;;;;;10.48;7.45;;;6.50;99.90;;;;;;5011331;28;20049;-66
2022/11/12 02:58:18;;;;;;;10.13;7.60;;;6.60;99.90;;;;;;4995818;28;20053;-67
2022/11/12 03:00:43;;;;;;;11.18;7.18;;;6.60;99.90;;;;;;4991407;28;20034;-66
2022/11/12 03:03:09;;;;;;;11.10;7.63;;;6.60;99.90;;;;;;4994571;28;20117;-66
2022/11/12 03:05:35;;;;;;;10.85;7.18;;;6.60;99.90;;;;;;4989824;28;20045;-66
2022/11/12 03:08:04;;;;;;;10.63;7.22;;;6.50;99.90;;;;;;5010800;28;20056;-67
2022/11/12 03:10:30;;;;;;;12.43;6.68;;;6.50;99.90;;;;;;5011660;28;20049;-66
2022/11/12 03:12:57;;;;;;;10.80;7.00;;;6.50;99.90;;;;;;4995916;28;20428;-66
2022/11/12 03:15:23;;;;;;;9.90;6.85;;;6.50;99.90;;;;;;5011144;28;20049;-66
2022/11/12 03:17:49;;;;;;;10.48;6.93;;;6.40;99.90;;;;;;5011367;28;20046;-66
2022/11/12 03:20:15;;;;;;;10.88;7.30;;;6.40;99.90;;;;;;5012314;28;20067;-66
2022/11/12 03:22:40;;;;;;;11.57;7.20;;;6.50;99.90;;;;;;5014714;28;20084;-66
2022/11/12 03:25:07;;;;;;;11.85;6.97;;;6.50;99.90;;;;;;5015051;28;20066;-66
2022/11/12 03:27:33;;;;;;;11.57;7.15;;;6.50;99.90;;;;;;4995603;28;20049;-66
2022/11/12 03:29:59;;;;;;;12.27;7.50;;;6.40;99.90;;;;;;4996171;28;20045;-66
2022/11/12 03:32:24;;;;;;;10.02;6.72;;;6.30;99.90;;;;;;4996081;28;20054;-66
2022/11/12 03:34:50;;;;;;;10.98;7.47;;;6.30;99.90;;;;;;5008882;28;20421;-66
2022/11/12 03:37:16;;;;;;;9.48;6.72;;;6.30;99.90;;;;;;5003873;28;20138;-66
2022/11/12 03:39:42;;;;;;;10.73;6.90;;;6.30;99.90;;;;;;4996060;28;20065;-66
2022/11/12 03:42:07;;;;;;;10.73;6.78;;;6.30;99.90;;;;;;4979799;28;20066;-66
2022/11/12 03:44:33;;;;;;;10.73;7.43;;;6.30;99.90;;;;;;4990262;28;20038;-66
2022/11/12 03:46:59;;;;;;;11.27;7.45;;;6.30;99.90;;;;;;4995502;28;20128;-66
2022/11/12 03:49:24;;;;;;;11.77;8.10;;;6.20;99.90;;;;;;4979697;28;20045;-66
2022/11/12 03:51:50;;;;;;;11.90;7.55;;;6.10;99.90;;;;;;4979567;28;20046;-66
2022/11/12 03:54:15;;;;;;;11.02;7.07;;;6.10;99.90;;;;;;4998063;28;20045;-66
2022/11/12 03:56:41;;;;;;;11.60;7.10;;;6.00;99.90;;;;;;5003667;28;20038;-66
2022/11/12 03:59:06;;;;;;;12.77;7.35;;;6.00;99.90;;;;;;4999259;28;20038;-66
2022/11/12 04:01:32;;;;;;;12.02;6.90;;;6.00;99.90;;;;;;5015206;28;20038;-66
2022/11/12 04:03:57;;;;;;;9.73;6.63;;;6.00;99.90;;;;;;5014149;28;20072;-66
2022/11/12 04:09:07;;;;;;;9.93;7.00;;;6.20;99.90;;;;;;5015121;28;20057;-66
2022/11/12 04:11:33;;;;;;;11.10;7.32;;;6.20;99.90;;;;;;4995074;28;20149;-66
2022/11/12 04:13:59;;;;;;;11.02;7.00;;;6.10;99.90;;;;;;4979085;28;20066;-66
2022/11/12 04:22:08;;;;;;;10.00;6.40;;;6.10;99.90;;;;;;5014885;28;20041;-66
2022/11/12 04:27:31;;;;;;;10.30;6.40;;;6.00;99.90;;;;;;5013907;28;20124;-66
2022/11/12 04:30:17;;;;;;;12.18;6.75;;;6.00;99.90;;;;;;4998445;28;20041;-66
2022/11/12 04:32:45;;;;;;;11.52;7.43;;;6.10;99.90;;;;;;5014406;28;20038;-66
2022/11/12 04:35:12;;;;;;;12.27;7.32;;;6.30;99.90;;;;;;4997895;28;20445;-66
2022/11/12 04:37:44;;;;;;;12.60;7.50;;;6.20;99.90;;;;;;5012639;28;20041;-66
2022/11/12 04:45:49;;;;;;;12.15;8.73;;;6.30;99.90;;;;;;4994830;28;20050;-66
2022/11/12 04:48:15;;;;;;;11.93;7.63;;;6.20;99.90;;;;;;5011186;28;20138;-66
2022/11/12 04:50:43;;;;;;;10.80;7.22;;;6.10;99.90;;;;;;4998181;28;20042;-66
2022/11/12 04:53:09;;;;;;;12.30;7.75;;;6.10;99.90;;;;;;5014157;28;20041;-66
2022/11/12 04:55:34;;;;;;;10.75;7.53;;;6.10;99.90;;;;;;4997603;28;20038;-66
2022/11/12 04:58:00;;;;;;;11.20;7.55;;;6.30;99.90;;;;;;5010394;28;20034;-66
2022/11/12 05:00:27;;;;;;;11.43;8.00;;;6.30;99.90;;;;;;4994517;28;20030;-66
2022/11/12 05:02:52;;;;;;;11.82;7.32;;;6.20;99.90;;;;;;4981348;28;20049;-66
2022/11/12 05:05:18;;;;;;;10.93;7.35;;;6.10;99.90;;;;;;4997731;28;20394;-66
2022/11/12 05:07:43;;;;;;;10.70;7.95;;;6.30;99.90;;;;;;5019800;28;20088;-66
2022/11/12 05:10:09;;;;;;;10.35;6.95;;;6.30;99.90;;;;;;4997685;28;20038;-66
2022/11/12 05:12:35;;;;;;;13.60;8.02;;;6.10;99.90;;;;;;5014192;28;20072;-66
2022/11/12 05:15:01;;;;;;;12.02;7.95;;;6.20;99.90;;;;;;4996698;28;20498;-66
2022/11/12 05:17:27;;;;;;;11.65;8.13;;;6.20;99.90;;;;;;4996402;28;20053;-66
2022/11/12 05:19:53;;;;;;;12.70;8.40;;;6.30;99.90;;;;;;4997465;28;20038;-66
2022/11/12 05:22:18;;;;;;;12.07;8.27;;;6.30;99.90;;;;;;5013719;28;20041;-66
2022/11/12 05:24:44;;;;;;;11.30;8.00;;;6.20;99.90;;;;;;5012207;28;20088;-66
2022/11/12 05:27:13;;;;;;;12.85;8.52;;;6.20;99.90;;;;;;5012756;28;20092;-66
2022/11/12 05:29:39;;;;;;;12.82;8.13;;;6.30;99.90;;;;;;4996151;28;20088;-66
2022/11/12 05:32:06;;;;;;;13.90;9.38;;;6.40;99.90;;;;;;4993492;28;20038;-66
2022/11/12 05:34:32;;;;;;;13.38;9.65;;;6.30;99.90;;;;;;4993783;28;20049;-66
2022/11/12 05:36:57;;;;;;;11.75;8.15;;;6.20;99.90;;;;;;5000563;28;20046;-66
2022/11/12 05:39:23;;;;;;;12.88;8.45;;;6.30;99.90;;;;;;4997300;28;20041;-66
2022/11/12 05:41:49;;;;;;;12.38;7.85;;;6.40;99.90;;;;;;5013677;28;20512;-66
2022/11/12 05:44:14;;;;;;;15.80;9.73;;;6.30;99.90;;;;;;5011577;28;20037;-66
2022/11/12 05:46:40;;;;;;;12.43;8.38;;;6.20;99.90;;;;;;5012417;28;20036;-66
2022/11/12 05:49:06;;;;;;;13.07;8.57;;;6.00;99.90;;;;;;4996982;28;20042;-66
2022/11/12 05:51:31;;;;;;;11.25;7.85;;;6.00;99.90;;;;;;4995635;28;20030;-66
2022/11/12 05:53:57;;;;;;;12.48;7.80;;;6.00;99.90;;;;;;5009080;28;20038;-66
2022/11/12 05:56:22;;;;;;;12.82;7.75;;;6.00;99.90;;;;;;4996598;28;20052;-67
2022/11/12 05:58:48;;;;;;;12.23;7.90;;;6.10;99.90;;;;;;5012363;28;20486;-66
2022/11/12 06:01:14;;;;;;;12.38;7.40;;;6.10;99.90;;;;;;5013023;28;20049;-66
2022/11/12 06:03:40;;;;;;;11.75;8.00;;;6.00;99.90;;;;;;5012079;28;20050;-66
2022/11/12 06:06:05;;;;;;;11.35;7.55;;;5.90;99.90;;;;;;4996540;28;20073;-66
2022/11/12 06:08:31;;;;;;;15.55;8.85;;;5.90;99.90;;;;;;5011149;28;20111;-66
2022/11/12 06:10:57;;;;;;;14.18;8.98;;;5.90;99.90;;;;;;4990834;28;20035;-66
2022/11/12 06:13:23;;;;;;;12.48;8.20;;;5.90;99.90;;;;;;5010461;28;20115;-66
2022/11/12 06:15:50;;;;;;;12.75;8.02;;;5.90;99.90;;;;;;5009657;28;20501;-66
2022/11/12 06:18:15;;;;;;;11.05;7.88;;;5.80;99.90;;;;;;5005619;28;20402;-66
2022/11/12 06:20:41;;;;;;;10.65;7.40;;;5.80;99.90;;;;;;4987543;28;20128;-66
2022/11/12 06:23:07;;;;;;;10.52;7.10;;;5.80;99.90;;;;;;5009254;28;20564;-66
2022/11/12 06:25:32;;;;;;;11.57;6.88;;;5.80;99.90;;;;;;5011282;28;20449;-66
2022/11/12 06:27:58;;;;;;;10.27;6.93;;;5.80;99.90;;;;;;5010608;28;20132;-66
2022/11/12 06:30:23;;;;;;;11.23;7.32;;;5.70;99.90;;;;;;5004492;28;20470;-66
2022/11/12 06:32:50;;;;;;;10.43;7.30;;;5.70;99.90;;;;;;5011771;28;20072;-66
2022/11/12 06:35:17;;;;;;;10.98;7.50;;;5.70;99.90;;;;;;4994858;28;20057;-66
2022/11/12 06:37:47;;;;;;;11.73;7.85;;;5.70;99.90;;;;;;4997456;28;20593;-66
2022/11/12 06:40:13;;;;;;;10.52;7.03;;;5.80;99.90;;;;;;5010988;28;20341;-66
2022/11/12 06:42:39;;;;;;;10.10;6.30;;;5.70;99.90;;;;;;4995420;28;20494;-67
2022/11/12 06:45:05;;;;;;;17.77;11.52;;;5.70;99.90;;;;;;5008400;28;20030;-66
2022/11/12 06:47:31;;;;;;;37.95;20.70;;;5.70;99.90;;;;;;5000522;28;20371;-66
2022/11/12 06:49:57;;;;;;;40.50;24.05;;;5.70;99.90;;;;;;5009815;28;20034;-66
2022/11/12 06:52:23;;;;;;;27.15;16.48;;;5.70;99.90;;;;;;5005654;28;20045;-66
2022/11/12 06:54:48;;;;;;;19.02;10.52;;;5.80;99.90;;;;;;5010630;28;20065;-66
2022/11/12 06:57:14;;;;;;;10.57;6.90;;;5.80;99.90;;;;;;4994387;28;20045;-66
2022/11/12 06:59:39;;;;;;;10.00;5.75;;;5.80;99.90;;;;;;5009172;28;20133;-66
2022/11/12 07:02:05;;;;;;;7.85;5.40;;;5.70;99.90;;;;;;5008639;28;20038;-66
2022/11/12 07:04:31;;;;;;;9.50;5.60;;;5.60;99.90;;;;;;5008824;28;20092;-72
2022/11/12 07:06:56;;;;;;;9.35;6.03;;;5.60;99.90;;;;;;5006950;28;20472;-72
2022/11/12 07:09:22;;;;;;;7.82;5.32;;;5.80;99.90;;;;;;4994205;28;20049;-66
2022/11/12 07:11:47;;;;;;;9.02;6.32;;;5.90;99.90;;;;;;4990108;28;20034;-66
2022/11/12 07:14:13;;;;;;;10.75;6.25;;;5.80;99.90;;;;;;5012093;28;20038;-66
2022/11/12 07:16:39;;;;;;;11.88;7.15;;;5.80;99.90;;;;;;5004448;28;20084;-66
2022/11/12 07:19:04;;;;;;;12.57;7.70;;;5.70;99.90;;;;;;5011144;28;20133;-66
2022/11/12 07:21:30;;;;;;;11.32;7.55;;;5.70;99.90;;;;;;5007109;28;20528;-66
2022/11/12 07:23:55;;;;;;;13.25;7.47;;;5.80;99.90;;;;;;4997345;28;20103;-66
2022/11/12 07:26:24;;;;;;;11.77;7.63;;;5.80;99.90;;;;;;4993860;28;20038;-66
2022/11/12 07:28:51;;;;;;;13.55;8.63;;;5.80;99.90;;;;;;4995502;28;20080;-67
2022/11/12 07:31:18;;;;;;;17.02;9.20;;;5.80;99.90;;;;;;4993611;28;20046;-66
2022/11/12 07:33:44;;;;;;;15.60;9.25;;;5.80;99.90;;;;;;5010997;28;20092;-66
2022/11/12 07:36:18;;;;;;;15.05;9.32;;;5.80;99.90;;;;;;4993945;28;20431;-66
2022/11/12 07:38:44;;;;;;;16.88;9.52;;;5.90;99.90;;;;;;5000608;28;20548;-66
2022/11/12 07:41:18;;;;;;;16.77;9.63;;;6.00;99.90;;;;;;4993501;28;20053;-66
2022/11/12 07:43:46;;;;;;;15.80;9.23;;;6.00;99.90;;;;;;5019981;28;20030;-66
2022/11/12 07:46:18;;;;;;;19.58;9.25;;;6.10;99.90;;;;;;4996701;28;20080;-66
2022/11/12 07:48:45;;;;;;;23.55;8.80;;;6.10;99.90;;;;;;4993173;28;20451;-66
2022/11/12 07:51:13;;;;;;;20.17;9.70;;;6.10;99.90;;;;;;5007392;28;20046;-66
2022/11/12 07:53:39;;;;;;;16.45;8.50;;;6.30;99.90;;;;;;5010667;28;20064;-66
2022/11/12 07:56:06;;;;;;;13.95;7.85;;;6.40;99.90;;;;;;5011551;28;20513;-66
2022/11/12 07:58:33;;;;;;;13.88;7.95;;;6.40;99.90;;;;;;5010716;28;20058;-66
2022/11/12 08:01:10;;;;;;;14.07;8.15;;;6.40;99.90;;;;;;4994944;28;20037;-66
2022/11/12 08:03:36;;;;;;;25.08;9.23;;;6.40;99.90;;;;;;4992033;28;20077;-67
2022/11/12 08:06:03;;;;;;;20.60;9.85;;;6.40;99.90;;;;;;4991972;28;20482;-67
2022/11/12 08:08:28;;;;;;;19.55;9.60;;;6.50;99.90;;;;;;4994499;28;20046;-66
2022/11/12 08:10:58;;;;;;;16.20;9.00;;;6.50;99.90;;;;;;4978994;28;20045;-66
2022/11/12 08:13:24;;;;;;;26.48;10.10;;;6.50;99.90;;;;;;4995980;28;20065;-66
2022/11/12 08:15:50;;;;;;;19.85;10.05;;;6.50;99.90;;;;;;4998532;28;20486;-66
2022/11/12 08:18:16;;;;;;;19.42;10.15;;;6.50;99.90;;;;;;4998531;28;20129;-66
2022/11/12 08:20:41;;;;;;;19.77;9.90;;;6.50;99.90;;;;;;5014837;28;20041;-67
2022/11/12 08:23:07;;;;;;;19.88;10.10;;;6.60;99.90;;;;;;4998551;28;20030;-67
2022/11/12 08:25:33;;;;;;;20.65;10.27;;;6.80;99.90;;;;;;5015045;28;20393;-66
2022/11/12 08:27:59;;;;;;;26.25;10.60;;;6.80;99.90;;;;;;4998671;28;20038;-67
2022/11/12 08:30:28;;;;;;;22.75;11.45;;;6.80;99.90;;;;;;5015018;28;20038;-67
2022/11/12 08:33:02;;;;;;;23.92;12.18;;;6.80;99.90;;;;;;5014980;28;20478;-66
2022/11/12 08:35:28;;;;;;;22.95;12.93;;;6.80;99.90;;;;;;4998315;28;20042;-66
2022/11/12 08:38:02;;;;;;;24.30;10.52;;;6.90;99.90;;;;;;5014578;28;20125;-66
2022/11/12 08:40:30;;;;;;;23.35;11.55;;;7.10;99.90;;;;;;5008102;28;20041;-66
2022/11/12 08:43:01;;;;;;;28.05;12.30;;;7.10;99.90;;;;;;4996176;28;20089;-67
2022/11/12 08:45:27;;;;;;;36.05;14.05;;;7.10;99.90;;;;;;5014415;28;20076;-66
2022/11/12 08:47:57;;;;;;;21.27;12.98;;;7.10;99.90;;;;;;4998035;28;20042;-66
2022/11/12 08:50:22;;;;;;;28.38;13.48;;;7.10;99.90;;;;;;5014368;28;20046;-66
2022/11/12 08:52:48;;;;;;;28.83;13.27;;;7.20;99.90;;;;;;5014569;28;20052;-67
2022/11/12 08:55:14;;;;;;;26.63;13.73;;;7.40;99.90;;;;;;4997932;28;20038;-66
2022/11/12 08:57:43;;;;;;;28.92;14.63;;;7.50;99.90;;;;;;5014181;28;20421;-66
2022/11/12 09:00:13;;;;;;;26.23;13.98;;;7.60;99.90;;;;;;4998159;28;20456;-66
2022/11/12 09:02:38;;;;;;;28.10;13.90;;;7.60;99.90;;;;;;5014017;28;20092;-67
2022/11/12 09:05:04;;;;;;;27.70;14.52;;;7.70;99.90;;;;;;5014116;28;20049;-66
2022/11/12 09:07:30;;;;;;;23.85;13.95;;;7.60;99.90;;;;;;4997784;28;20125;-66
2022/11/12 09:09:57;;;;;;;25.45;14.63;;;7.70;99.90;;;;;;4997012;28;20438;-66
2022/11/12 09:12:22;;;;;;;46.42;15.07;;;7.70;99.90;;;;;;4997675;28;20041;-66
2022/11/12 09:14:48;;;;;;;31.02;14.35;;;7.70;99.90;;;;;;5013324;28;20061;-67
2022/11/12 09:17:14;;;;;;;25.45;14.88;;;7.80;99.90;;;;;;5013990;28;20180;-66
2022/11/12 09:19:40;;;;;;;25.08;14.13;;;7.80;99.90;;;;;;5012801;28;20048;-66
2022/11/12 09:22:05;;;;;;;23.98;14.90;;;7.90;99.90;;;;;;4997551;28;20517;-66
2022/11/12 09:24:31;;;;;;;29.48;15.45;;;8.00;99.90;;;;;;5004378;28;20156;-66
2022/11/12 09:26:57;;;;;;;24.33;15.02;;;7.90;99.90;;;;;;5033351;28;20159;-66
2022/11/12 09:29:22;;;;;;;23.40;12.80;;;7.80;99.90;;;;;;5007732;28;20120;-66
2022/11/12 09:31:48;;;;;;;22.55;14.43;;;8.00;99.90;;;;;;4997586;28;20038;-66
2022/11/12 09:34:13;;;;;;;20.92;12.52;;;7.90;99.90;;;;;;5013741;28;20045;-66
2022/11/12 09:36:39;;;;;;;20.92;14.15;;;8.00;99.90;;;;;;5013447;28;20129;-66
2022/11/12 09:39:04;;;;;;;28.40;15.48;;;7.90;99.90;;;;;;5013325;28;20046;-66
2022/11/12 09:41:36;;;;;;;27.92;17.63;;;8.00;99.90;;;;;;5022645;28;20500;-66
2022/11/12 09:44:05;;;;;;;28.38;15.35;;;8.10;99.90;;;;;;5033038;28;20046;-66
2022/11/12 09:46:39;;;;;;;38.63;17.27;;;8.00;99.90;;;;;;5033214;28;20037;-67
2022/11/12 09:49:11;;;;;;;22.50;15.98;;;7.90;99.90;;;;;;5033044;28;20552;-66
2022/11/12 09:51:51;;;;;;;27.48;15.63;;;7.80;99.90;;;;;;5016638;28;20088;-66
2022/11/12 09:54:35;;;;;;;29.15;18.52;;;7.90;99.90;;;;;;5032915;28;20128;-66
2022/11/12 09:57:01;;;;;;;27.42;17.80;;;7.90;99.90;;;;;;5016248;28;20076;-66
2022/11/12 09:59:35;;;;;;;32.20;19.58;;;7.90;99.90;;;;;;5012643;28;20447;-66
2022/11/12 10:02:28;;;;;;;29.35;19.70;;;7.90;99.90;;;;;;4996680;28;20053;-66
2022/11/12 10:05:24;;;;;;;34.50;19.30;;;7.90;99.90;;;;;;4996853;28;20422;-66
2022/11/12 10:08:12;;;;;;;27.95;17.33;;;8.00;99.90;;;;;;5012916;28;20121;-67
2022/11/12 10:10:43;;;;;;;26.60;17.42;;;8.20;99.90;;;;;;4996799;28;20081;-66
2022/11/12 10:13:28;;;;;;;35.22;20.75;;;8.30;99.90;;;;;;5013066;28;20391;-66
2022/11/12 10:16:41;;;;;;;31.30;21.20;;;8.20;99.90;;;;;;4996467;28;20046;-66
2022/11/12 10:19:19;;;;;;;39.30;23.10;;;8.10;99.90;;;;;;5012643;28;20041;-67
2022/11/12 10:22:15;;;;;;;30.25;19.35;;;8.20;99.90;;;;;;5012794;28;20050;-67
2022/11/12 10:24:41;;;;;;;31.35;20.27;;;8.30;99.90;;;;;;4993344;28;20043;-67
2022/11/12 10:27:21;;;;;;;32.60;21.05;;;8.30;99.90;;;;;;4993219;28;20065;-66
2022/11/12 10:29:58;;;;;;;36.35;21.73;;;8.30;99.90;;;;;;4992792;28;20046;-67
2022/11/12 10:32:23;;;;;;;29.98;20.20;;;8.30;99.90;;;;;;4992442;28;20045;-66
2022/11/12 10:34:49;;;;;;;30.02;20.20;;;8.30;99.90;;;;;;5012572;28;20670;-67
2022/11/12 10:37:27;;;;;;;38.90;22.85;;;8.30;99.90;;;;;;5012312;28;20472;-67
2022/11/12 10:39:53;;;;;;;35.22;21.55;;;8.50;99.90;;;;;;5012703;28;20042;-67
2022/11/12 10:42:20;;;;;;;34.20;20.58;;;8.40;99.90;;;;;;4996232;28;20076;-66
2022/11/12 10:44:47;;;;;;;30.35;20.13;;;8.60;99.90;;;;;;4996286;28;20046;-66
2022/11/12 10:47:21;;;;;;;28.05;18.45;;;8.70;99.90;;;;;;5011095;28;20513;-67
2022/11/12 10:50:07;;;;;;;23.40;15.68;;;8.80;99.90;;;;;;5009608;28;20042;-67
2022/11/12 10:52:33;;;;;;;19.73;14.27;;;8.80;99.90;;;;;;4994513;28;20046;-67
2022/11/12 10:55:19;;;;;;;16.63;12.35;;;9.00;99.90;;;;;;5011849;28;20489;-67
2022/11/12 10:57:44;;;;;;;15.55;10.90;;;9.20;99.90;;;;;;5011257;28;20080;-67
2022/11/12 11:00:13;;;;;;;17.55;12.05;;;9.30;99.90;;;;;;5011556;28;20041;-67
2022/11/12 11:02:51;;;;;;;15.05;11.15;;;9.40;99.90;;;;;;5012009;28;20037;-67
2022/11/12 11:05:38;;;;;;;14.68;11.27;;;9.40;99.90;;;;;;5012115;28;20057;-67
2022/11/12 11:08:04;;;;;;;16.58;11.95;;;9.30;99.90;;;;;;5009608;28;20042;-67
2022/11/12 11:10:34;;;;;;;16.50;11.73;;;9.50;99.90;;;;;;5012197;28;20061;-67
2022/11/12 11:13:17;;;;;;;16.08;10.77;;;9.50;99.90;;;;;;4990699;28;20046;-67
2022/11/12 11:16:04;;;;;;;15.65;12.10;;;9.60;99.90;;;;;;4992576;28;20050;-67
2022/11/12 11:18:33;;;;;;;15.15;11.18;;;9.60;99.90;;;;;;5010017;28;20446;-67
2022/11/12 11:21:23;;;;;;;16.88;11.88;;;9.60;99.90;;;;;;4993104;28;20149;-67
2022/11/12 11:23:56;;;;;;;16.38;11.50;;;9.60;99.90;;;;;;4976215;28;20034;-67
2022/11/12 11:26:27;;;;;;;16.02;11.05;;;9.60;99.90;;;;;;4988716;28;20445;-67
2022/11/12 11:29:12;;;;;;;15.70;11.07;;;9.70;99.90;;;;;;5000250;28;20037;-67
2022/11/12 11:31:57;;;;;;;14.45;11.10;;;9.80;99.90;;;;;;4994297;28;20094;-67
2022/11/12 11:34:42;;;;;;;15.63;11.10;;;9.80;99.90;;;;;;4991812;28;20494;-67
2022/11/12 11:37:29;;;;;;;15.15;11.25;;;9.90;99.90;;;;;;4997897;28;20402;-67
2022/11/12 11:40:09;;;;;;;14.98;10.40;;;9.90;99.90;;;;;;5009882;28;20486;-67
2022/11/12 11:43:10;;;;;;;16.00;11.32;;;10.00;99.90;;;;;;5000174;28;20038;-69
2022/11/12 11:45:58;;;;;;;16.52;12.40;;;10.10;99.90;;;;;;4981798;28;20046;-67
2022/11/12 11:48:42;;;;;;;22.00;12.18;;;10.10;99.90;;;;;;5000632;28;20046;-68
2022/11/12 11:51:34;;;;;;;14.32;10.82;;;10.10;99.90;;;;;;5006093;28;20069;-67
2022/11/12 11:54:03;;;;;;;;;;;10.20;99.90;;;;;;4997141;28;20038;-68
2022/11/12 11:56:39;;;;;;;14.63;10.77;;;10.30;99.90;;;;;;4988066;28;19924;-68
2022/11/12 11:59:17;;;;;;;14.50;10.60;;;10.30;99.90;;;;;;4998877;28;20038;-67
2022/11/12 12:02:17;;;;;;;14.65;9.98;;;10.40;99.90;;;;;;4990995;28;20049;-67
2022/11/12 12:05:00;;;;;;;16.70;11.82;;;10.50;99.90;;;;;;4997983;28;20061;-67
2022/11/12 12:07:57;;;;;;;18.55;11.90;;;10.60;99.90;;;;;;5007945;28;20552;-67
2022/11/12 12:10:40;;;;;;;15.23;11.05;;;10.70;99.90;;;;;;4996955;28;20399;-68
2022/11/12 12:13:39;;;;;;;15.15;10.63;;;10.70;99.90;;;;;;5007916;28;20056;-68
2022/11/12 12:16:33;;;;;;;15.63;11.13;;;10.80;99.90;;;;;;4997652;28;20104;-68
2022/11/12 12:19:37;;;;;;;16.52;10.80;;;10.80;99.90;;;;;;4996608;28;20052;-68
2022/11/12 12:22:14;;;;;;;15.63;10.75;;;10.90;99.90;;;;;;5013042;28;20034;-68
2022/11/12 12:25:14;;;;;;;15.27;10.27;;;11.00;99.90;;;;;;5014849;28;20076;-67
2022/11/12 12:28:07;;;;;;;13.20;10.07;;;11.10;99.90;;;;;;4998042;28;20062;-67
2022/11/12 12:30:35;;;;;;;;;;;11.10;99.90;;;;;;4998788;28;20057;-67
2022/11/12 12:33:31;;;;;;;14.02;10.00;;;11.20;99.90;;;;;;5014741;28;19922;-67
2022/11/12 12:36:02;;;;;;;14.57;9.63;;;11.20;99.90;;;;;;4998719;28;20401;-67
2022/11/12 12:38:36;;;;;;;14.23;9.70;;;11.20;99.90;;;;;;4997785;28;20495;-67
2022/11/12 12:41:31;;;;;;;13.40;9.93;;;11.20;99.90;;;;;;5014609;28;20117;-67
2022/11/12 12:44:03;;;;;;;12.90;9.68;;;11.20;99.90;;;;;;5014543;28;20042;-67
2022/11/12 12:46:35;;;;;;;12.90;9.65;;;11.20;99.90;;;;;;4998136;28;20038;-67
2022/11/12 12:49:03;;;;;;;11.60;8.82;;;11.20;99.90;;;;;;5014318;28;20041;-67
2022/11/12 12:51:31;;;;;;;13.10;9.38;;;11.30;99.90;;;;;;5014539;28;20067;-68
2022/11/12 12:53:57;;;;;;;15.27;10.30;;;11.40;99.90;;;;;;5013994;28;20081;-67
2022/11/12 12:56:29;;;;;;;13.85;9.60;;;11.40;99.90;;;;;;4997933;28;20052;-67
2022/11/12 12:58:54;;;;;;;14.18;9.85;;;11.40;99.90;;;;;;5014185;28;20095;-67
2022/11/12 13:01:20;;;;;;;13.13;9.95;;;11.40;99.90;;;;;;5014237;28;20041;-67
2022/11/12 13:04:10;;;;;;;13.45;9.82;;;11.40;99.90;;;;;;5013922;28;20100;-67
2022/11/12 13:06:52;;;;;;;14.05;9.45;;;11.40;99.90;;;;;;5014384;28;20084;-67
2022/11/12 13:09:18;;;;;;;13.50;9.38;;;11.40;99.90;;;;;;5014012;28;20033;-68
2022/11/12 13:14:30;;;;;;;14.23;9.77;;;11.40;99.90;;;;;;5013905;28;20045;-68
2022/11/12 13:17:37;;;;;;;13.05;9.07;;;11.50;99.90;;;;;;5013810;28;20046;-67